Terminal Aerodrome Forecast
Issued by NWS

Home | Current Version | Previous Version | Text Only | Print | Product List | Glossary On
Versions: 1 2 3 4 5 6 7 8 9 10 11 12 13 14 15 16 17 18 19 20 21 22 23 24 25 26 27
000
FTUS41 KCTP 272359
TAFUNV
TAF
KUNV 272359Z 2800/2824 VRB03KT P6SM SCT025
     FM280100 12003KT P6SM BKN025
     FM280200 12003KT P6SM OVC015
     FM280500 13002KT 5SM BR OVC008
     FM280800 00000KT 3SM BR OVC004
     FM281500 VRB02KT 6SM BR BKN015
     FM281700 23004KT P6SM SCT040=

USA.gov is the U.S. government's official web portal to all federal, state and local government web resources and services.